Terminal Aerodrome Forecast
Issued by NWS

Home | Current Version | Previous Version | Text Only | Print | Product List | Glossary On
Versions: 1 2 3 4 5 6 7 8 9 10 11 12 13 14
316
FTUS45 KVEF 230530
TAFVGT
TAF
KVGT 230530Z 2306/2406 25015G25KT P6SM FEW140
     FM231500 31015KT P6SM BKN120
     FM232000 33015G25KT P6SM VCSH SCT080 BKN100
     FM240300 34012G22KT P6SM SCT100=

USA.gov is the U.S. government's official web portal to all federal, state and local government web resources and services.